sensor_id;sensor_type;location;lat;lon;timestamp;P1;durP1;ratioP1;P2;durP2;ratioP2
40511;SDS011;26213;52.446;20.706;2022-10-31T00:01:24;89.82;;;51.35;;
40511;SDS011;26213;52.446;20.706;2022-10-31T00:03:51;95.32;;;46.40;;
40511;SDS011;26213;52.446;20.706;2022-10-31T00:06:17;64.90;;;43.17;;
40511;SDS011;26213;52.446;20.706;2022-10-31T00:08:45;99.72;;;42.55;;
40511;SDS011;26213;52.446;20.706;2022-10-31T00:11:12;99.45;;;46.75;;
40511;SDS011;26213;52.446;20.706;2022-10-31T00:13:37;100.85;;;46.63;;
40511;SDS011;26213;52.446;20.706;2022-10-31T00:16:03;97.45;;;45.45;;
40511;SDS011;26213;52.446;20.706;2022-10-31T00:18:29;83.95;;;49.00;;
40511;SDS011;26213;52.446;20.706;2022-10-31T00:21:01;67.60;;;41.78;;
40511;SDS011;26213;52.446;20.706;2022-10-31T00:23:27;57.15;;;38.35;;
40511;SDS011;26213;52.446;20.706;2022-10-31T00:25:53;59.78;;;37.20;;
40511;SDS011;26213;52.446;20.706;2022-10-31T00:28:19;52.75;;;35.55;;
40511;SDS011;26213;52.446;20.706;2022-10-31T00:30:44;49.05;;;35.25;;
40511;SDS011;26213;52.446;20.706;2022-10-31T00:33:09;61.20;;;39.75;;
40511;SDS011;26213;52.446;20.706;2022-10-31T00:35:35;61.80;;;39.92;;
40511;SDS011;26213;52.446;20.706;2022-10-31T00:38:00;53.50;;;36.25;;
40511;SDS011;26213;52.446;20.706;2022-10-31T00:40:26;59.53;;;38.85;;
40511;SDS011;26213;52.446;20.706;2022-10-31T00:42:52;56.03;;;38.85;;
40511;SDS011;26213;52.446;20.706;2022-10-31T00:45:17;53.92;;;36.03;;
40511;SDS011;26213;52.446;20.706;2022-10-31T00:47:42;47.50;;;35.40;;
40511;SDS011;26213;52.446;20.706;2022-10-31T00:50:08;52.70;;;36.03;;
40511;SDS011;26213;52.446;20.706;2022-10-31T00:52:34;45.72;;;31.90;;
40511;SDS011;26213;52.446;20.706;2022-10-31T00:54:59;44.65;;;30.98;;
40511;SDS011;26213;52.446;20.706;2022-10-31T00:57:25;44.95;;;30.90;;
40511;SDS011;26213;52.446;20.706;2022-10-31T00:59:50;44.05;;;31.38;;
40511;SDS011;26213;52.446;20.706;2022-10-31T01:02:16;56.30;;;32.92;;
40511;SDS011;26213;52.446;20.706;2022-10-31T01:04:41;65.80;;;33.35;;
40511;SDS011;26213;52.446;20.706;2022-10-31T01:07:07;79.65;;;35.28;;
40511;SDS011;26213;52.446;20.706;2022-10-31T01:09:32;76.05;;;34.75;;
40511;SDS011;26213;52.446;20.706;2022-10-31T01:11:58;50.03;;;32.38;;
40511;SDS011;26213;52.446;20.706;2022-10-31T01:14:23;64.97;;;29.67;;
40511;SDS011;26213;52.446;20.706;2022-10-31T01:16:48;81.07;;;34.85;;
40511;SDS011;26213;52.446;20.706;2022-10-31T01:19:14;84.38;;;32.30;;
40511;SDS011;26213;52.446;20.706;2022-10-31T01:21:39;56.90;;;32.40;;
40511;SDS011;26213;52.446;20.706;2022-10-31T01:24:05;53.40;;;34.05;;
40511;SDS011;26213;52.446;20.706;2022-10-31T01:26:31;69.35;;;33.55;;
40511;SDS011;26213;52.446;20.706;2022-10-31T01:29:03;62.85;;;28.08;;
40511;SDS011;26213;52.446;20.706;2022-10-31T01:31:31;48.15;;;29.70;;
40511;SDS011;26213;52.446;20.706;2022-10-31T01:36:27;78.78;;;28.23;;
40511;SDS011;26213;52.446;20.706;2022-10-31T01:38:53;94.28;;;27.15;;
40511;SDS011;26213;52.446;20.706;2022-10-31T01:41:21;90.93;;;28.55;;
40511;SDS011;26213;52.446;20.706;2022-10-31T01:43:49;73.82;;;25.20;;
40511;SDS011;26213;52.446;20.706;2022-10-31T01:46:20;69.25;;;25.35;;
40511;SDS011;26213;52.446;20.706;2022-10-31T01:48:49;61.92;;;24.88;;
40511;SDS011;26213;52.446;20.706;2022-10-31T01:51:15;64.43;;;24.58;;
40511;SDS011;26213;52.446;20.706;2022-10-31T01:53:42;82.47;;;24.23;;
40511;SDS011;26213;52.446;20.706;2022-10-31T01:56:09;83.93;;;24.60;;
40511;SDS011;26213;52.446;20.706;2022-10-31T01:58:34;65.07;;;23.98;;
40511;SDS011;26213;52.446;20.706;2022-10-31T02:01:00;48.70;;;25.38;;
40511;SDS011;26213;52.446;20.706;2022-10-31T02:03:26;57.78;;;24.02;;
40511;SDS011;26213;52.446;20.706;2022-10-31T02:05:53;59.58;;;24.00;;
40511;SDS011;26213;52.446;20.706;2022-10-31T02:08:24;42.08;;;21.10;;
40511;SDS011;26213;52.446;20.706;2022-10-31T02:10:52;82.93;;;24.75;;
40511;SDS011;26213;52.446;20.706;2022-10-31T02:13:18;77.38;;;24.83;;
40511;SDS011;26213;52.446;20.706;2022-10-31T02:15:44;71.80;;;25.92;;
40511;SDS011;26213;52.446;20.706;2022-10-31T02:18:10;70.72;;;24.30;;
40511;SDS011;26213;52.446;20.706;2022-10-31T02:20:39;54.42;;;26.70;;
40511;SDS011;26213;52.446;20.706;2022-10-31T02:23:30;53.20;;;23.75;;
40511;SDS011;26213;52.446;20.706;2022-10-31T02:26:24;74.25;;;23.48;;
40511;SDS011;26213;52.446;20.706;2022-10-31T02:29:16;94.55;;;28.10;;
40511;SDS011;26213;52.446;20.706;2022-10-31T02:32:09;79.90;;;27.90;;
40511;SDS011;26213;52.446;20.706;2022-10-31T02:34:58;109.20;;;29.63;;
40511;SDS011;26213;52.446;20.706;2022-10-31T02:37:29;81.25;;;28.42;;
40511;SDS011;26213;52.446;20.706;2022-10-31T02:40:25;72.95;;;23.08;;
40511;SDS011;26213;52.446;20.706;2022-10-31T02:43:07;64.03;;;24.10;;
40511;SDS011;26213;52.446;20.706;2022-10-31T02:48:21;79.68;;;29.60;;
40511;SDS011;26213;52.446;20.706;2022-10-31T02:50:51;137.45;;;31.75;;
40511;SDS011;26213;52.446;20.706;2022-10-31T02:53:19;60.13;;;25.20;;
40511;SDS011;26213;52.446;20.706;2022-10-31T02:55:47;71.45;;;28.38;;
40511;SDS011;26213;52.446;20.706;2022-10-31T02:58:16;60.95;;;27.10;;
40511;SDS011;26213;52.446;20.706;2022-10-31T03:11:53;65.50;;;26.63;;
40511;SDS011;26213;52.446;20.706;2022-10-31T03:17:11;82.35;;;26.77;;
40511;SDS011;26213;52.446;20.706;2022-10-31T03:19:45;76.93;;;28.75;;
40511;SDS011;26213;52.446;20.706;2022-10-31T03:22:20;29.40;;;22.58;;
40511;SDS011;26213;52.446;20.706;2022-10-31T03:24:47;36.58;;;23.67;;
40511;SDS011;26213;52.446;20.706;2022-10-31T03:27:18;58.28;;;25.60;;
40511;SDS011;26213;52.446;20.706;2022-10-31T03:29:45;68.40;;;25.80;;
40511;SDS011;26213;52.446;20.706;2022-10-31T03:32:13;66.57;;;26.58;;
40511;SDS011;26213;52.446;20.706;2022-10-31T03:34:41;45.67;;;24.88;;
40511;SDS011;26213;52.446;20.706;2022-10-31T03:37:09;43.78;;;26.00;;
40511;SDS011;26213;52.446;20.706;2022-10-31T03:39:36;67.25;;;25.17;;
40511;SDS011;26213;52.446;20.706;2022-10-31T03:44:36;61.58;;;24.65;;
40511;SDS011;26213;52.446;20.706;2022-10-31T03:47:04;75.60;;;30.40;;
40511;SDS011;26213;52.446;20.706;2022-10-31T03:49:30;124.45;;;30.00;;
40511;SDS011;26213;52.446;20.706;2022-10-31T03:51:57;67.53;;;27.23;;
40511;SDS011;26213;52.446;20.706;2022-10-31T03:54:46;72.40;;;26.58;;
40511;SDS011;26213;52.446;20.706;2022-10-31T03:57:21;32.38;;;21.42;;
40511;SDS011;26213;52.446;20.706;2022-10-31T03:59:58;56.58;;;23.73;;
40511;SDS011;26213;52.446;20.706;2022-10-31T04:02:31;56.78;;;23.60;;
40511;SDS011;26213;52.446;20.706;2022-10-31T04:04:58;32.60;;;22.90;;
40511;SDS011;26213;52.446;20.706;2022-10-31T04:07:25;50.25;;;24.45;;
40511;SDS011;26213;52.446;20.706;2022-10-31T04:09:53;94.70;;;25.02;;
40511;SDS011;26213;52.446;20.706;2022-10-31T04:12:19;167.40;;;30.35;;
40511;SDS011;26213;52.446;20.706;2022-10-31T04:14:46;122.07;;;27.98;;
40511;SDS011;26213;52.446;20.706;2022-10-31T04:17:13;157.53;;;33.03;;
40511;SDS011;26213;52.446;20.706;2022-10-31T04:19:40;176.48;;;32.10;;
40511;SDS011;26213;52.446;20.706;2022-10-31T04:22:06;142.95;;;31.45;;
40511;SDS011;26213;52.446;20.706;2022-10-31T04:24:31;130.43;;;31.00;;
40511;SDS011;26213;52.446;20.706;2022-10-31T04:26:57;94.72;;;28.38;;
40511;SDS011;26213;52.446;20.706;2022-10-31T04:29:22;65.78;;;28.73;;
40511;SDS011;26213;52.446;20.706;2022-10-31T04:31:48;39.30;;;24.60;;
40511;SDS011;26213;52.446;20.706;2022-10-31T04:34:13;44.95;;;27.48;;
40511;SDS011;26213;52.446;20.706;2022-10-31T04:36:39;39.15;;;25.60;;
40511;SDS011;26213;52.446;20.706;2022-10-31T04:39:04;39.75;;;24.23;;
40511;SDS011;26213;52.446;20.706;2022-10-31T04:41:29;49.55;;;24.05;;
40511;SDS011;26213;52.446;20.706;2022-10-31T04:43:55;43.67;;;24.42;;
40511;SDS011;26213;52.446;20.706;2022-10-31T04:46:20;37.33;;;23.30;;
40511;SDS011;26213;52.446;20.706;2022-10-31T04:48:46;28.42;;;23.33;;
40511;SDS011;26213;52.446;20.706;2022-10-31T04:51:11;32.80;;;23.35;;
40511;SDS011;26213;52.446;20.706;2022-10-31T04:53:37;31.98;;;23.02;;
40511;SDS011;26213;52.446;20.706;2022-10-31T04:56:02;51.67;;;25.88;;
40511;SDS011;26213;52.446;20.706;2022-10-31T04:58:27;51.35;;;25.00;;
40511;SDS011;26213;52.446;20.706;2022-10-31T05:00:53;41.13;;;22.90;;
40511;SDS011;26213;52.446;20.706;2022-10-31T05:03:19;59.28;;;23.50;;
40511;SDS011;26213;52.446;20.706;2022-10-31T05:05:45;35.90;;;22.40;;
40511;SDS011;26213;52.446;20.706;2022-10-31T05:08:10;45.22;;;24.58;;
40511;SDS011;26213;52.446;20.706;2022-10-31T05:10:36;41.35;;;20.95;;
40511;SDS011;26213;52.446;20.706;2022-10-31T05:13:02;60.03;;;20.90;;
40511;SDS011;26213;52.446;20.706;2022-10-31T05:15:28;44.83;;;22.15;;
40511;SDS011;26213;52.446;20.706;2022-10-31T05:17:54;48.58;;;22.02;;
40511;SDS011;26213;52.446;20.706;2022-10-31T05:20:21;32.03;;;20.52;;
40511;SDS011;26213;52.446;20.706;2022-10-31T05:22:48;41.50;;;19.67;;
40511;SDS011;26213;52.446;20.706;2022-10-31T05:25:15;46.30;;;20.33;;
40511;SDS011;26213;52.446;20.706;2022-10-31T05:27:41;53.33;;;21.50;;
40511;SDS011;26213;52.446;20.706;2022-10-31T05:30:09;41.53;;;20.73;;
40511;SDS011;26213;52.446;20.706;2022-10-31T05:32:42;31.17;;;20.35;;
40511;SDS011;26213;52.446;20.706;2022-10-31T05:35:09;51.67;;;20.83;;
40511;SDS011;26213;52.446;20.706;2022-10-31T05:37:39;49.78;;;21.30;;
40511;SDS011;26213;52.446;20.706;2022-10-31T05:40:05;44.47;;;20.83;;
40511;SDS011;26213;52.446;20.706;2022-10-31T05:42:32;47.57;;;21.00;;
40511;SDS011;26213;52.446;20.706;2022-10-31T05:44:57;30.02;;;20.90;;
40511;SDS011;26213;52.446;20.706;2022-10-31T05:47:23;47.70;;;21.30;;
40511;SDS011;26213;52.446;20.706;2022-10-31T05:49:48;68.38;;;23.60;;
40511;SDS011;26213;52.446;20.706;2022-10-31T05:52:14;55.78;;;22.75;;
40511;SDS011;26213;52.446;20.706;2022-10-31T05:54:39;55.83;;;20.83;;
40511;SDS011;26213;52.446;20.706;2022-10-31T05:57:06;44.53;;;22.67;;
40511;SDS011;26213;52.446;20.706;2022-10-31T05:59:32;55.10;;;22.58;;
40511;SDS011;26213;52.446;20.706;2022-10-31T06:01:57;37.22;;;21.45;;
40511;SDS011;26213;52.446;20.706;2022-10-31T06:04:23;50.33;;;21.75;;
40511;SDS011;26213;52.446;20.706;2022-10-31T06:06:48;49.53;;;22.35;;
40511;SDS011;26213;52.446;20.706;2022-10-31T06:09:13;60.65;;;24.38;;
40511;SDS011;26213;52.446;20.706;2022-10-31T06:11:39;80.10;;;24.40;;
40511;SDS011;26213;52.446;20.706;2022-10-31T06:14:04;76.18;;;25.27;;
40511;SDS011;26213;52.446;20.706;2022-10-31T06:16:30;59.42;;;23.80;;
40511;SDS011;26213;52.446;20.706;2022-10-31T06:18:55;64.78;;;23.42;;
40511;SDS011;26213;52.446;20.706;2022-10-31T06:21:20;44.40;;;22.98;;
40511;SDS011;26213;52.446;20.706;2022-10-31T06:23:46;93.55;;;25.48;;
40511;SDS011;26213;52.446;20.706;2022-10-31T06:26:12;61.10;;;25.25;;
40511;SDS011;26213;52.446;20.706;2022-10-31T06:28:37;81.18;;;25.85;;
40511;SDS011;26213;52.446;20.706;2022-10-31T06:31:02;57.88;;;23.98;;
40511;SDS011;26213;52.446;20.706;2022-10-31T06:33:28;67.15;;;25.85;;
40511;SDS011;26213;52.446;20.706;2022-10-31T06:35:53;65.97;;;23.75;;
40511;SDS011;26213;52.446;20.706;2022-10-31T06:38:19;71.55;;;26.52;;
40511;SDS011;26213;52.446;20.706;2022-10-31T06:40:44;71.75;;;25.60;;
40511;SDS011;26213;52.446;20.706;2022-10-31T06:43:10;87.05;;;27.02;;
40511;SDS011;26213;52.446;20.706;2022-10-31T06:45:36;73.57;;;27.95;;
40511;SDS011;26213;52.446;20.706;2022-10-31T06:48:02;48.78;;;25.98;;
40511;SDS011;26213;52.446;20.706;2022-10-31T06:50:28;49.42;;;25.40;;
40511;SDS011;26213;52.446;20.706;2022-10-31T06:52:57;40.25;;;23.90;;
40511;SDS011;26213;52.446;20.706;2022-10-31T06:55:25;35.20;;;24.63;;
40511;SDS011;26213;52.446;20.706;2022-10-31T06:57:52;34.33;;;24.37;;
40511;SDS011;26213;52.446;20.706;2022-10-31T07:00:21;32.80;;;23.63;;
40511;SDS011;26213;52.446;20.706;2022-10-31T07:02:53;34.75;;;23.73;;
40511;SDS011;26213;52.446;20.706;2022-10-31T07:05:23;33.22;;;22.63;;
40511;SDS011;26213;52.446;20.706;2022-10-31T07:07:56;34.95;;;25.38;;
40511;SDS011;26213;52.446;20.706;2022-10-31T07:10:23;30.65;;;23.25;;
40511;SDS011;26213;52.446;20.706;2022-10-31T07:13:00;35.78;;;24.65;;
40511;SDS011;26213;52.446;20.706;2022-10-31T07:15:27;32.85;;;23.83;;
40511;SDS011;26213;52.446;20.706;2022-10-31T07:17:53;38.97;;;23.17;;
40511;SDS011;26213;52.446;20.706;2022-10-31T07:20:19;97.82;;;28.08;;
40511;SDS011;26213;52.446;20.706;2022-10-31T07:22:45;31.42;;;23.63;;
40511;SDS011;26213;52.446;20.706;2022-10-31T07:25:10;31.90;;;24.67;;
40511;SDS011;26213;52.446;20.706;2022-10-31T07:27:39;35.78;;;25.70;;
40511;SDS011;26213;52.446;20.706;2022-10-31T07:30:06;33.20;;;25.85;;
40511;SDS011;26213;52.446;20.706;2022-10-31T07:32:42;32.47;;;25.05;;
40511;SDS011;26213;52.446;20.706;2022-10-31T07:35:10;38.45;;;26.67;;
40511;SDS011;26213;52.446;20.706;2022-10-31T07:37:38;33.55;;;25.58;;
40511;SDS011;26213;52.446;20.706;2022-10-31T07:40:04;35.42;;;27.23;;
40511;SDS011;26213;52.446;20.706;2022-10-31T07:42:43;37.08;;;26.67;;
40511;SDS011;26213;52.446;20.706;2022-10-31T07:45:14;35.17;;;26.65;;
40511;SDS011;26213;52.446;20.706;2022-10-31T07:47:41;35.20;;;26.08;;
40511;SDS011;26213;52.446;20.706;2022-10-31T07:50:08;35.05;;;25.02;;
40511;SDS011;26213;52.446;20.706;2022-10-31T07:52:35;34.45;;;26.45;;
40511;SDS011;26213;52.446;20.706;2022-10-31T07:55:01;35.47;;;25.63;;
40511;SDS011;26213;52.446;20.706;2022-10-31T07:57:26;39.13;;;28.02;;
40511;SDS011;26213;52.446;20.706;2022-10-31T07:59:52;39.47;;;28.00;;
40511;SDS011;26213;52.446;20.706;2022-10-31T08:02:18;43.63;;;29.05;;
40511;SDS011;26213;52.446;20.706;2022-10-31T08:04:43;41.67;;;29.98;;
40511;SDS011;26213;52.446;20.706;2022-10-31T08:07:09;41.83;;;31.00;;
40511;SDS011;26213;52.446;20.706;2022-10-31T08:09:34;40.90;;;28.52;;
40511;SDS011;26213;52.446;20.706;2022-10-31T08:12:00;35.97;;;29.15;;
40511;SDS011;26213;52.446;20.706;2022-10-31T08:14:26;40.65;;;28.83;;
40511;SDS011;26213;52.446;20.706;2022-10-31T08:16:52;38.50;;;29.27;;
40511;SDS011;26213;52.446;20.706;2022-10-31T08:19:18;40.05;;;29.35;;
40511;SDS011;26213;52.446;20.706;2022-10-31T08:21:43;41.78;;;29.67;;
40511;SDS011;26213;52.446;20.706;2022-10-31T08:24:09;44.83;;;31.17;;
40511;SDS011;26213;52.446;20.706;2022-10-31T08:26:34;42.58;;;31.67;;
40511;SDS011;26213;52.446;20.706;2022-10-31T08:29:00;41.08;;;28.90;;
40511;SDS011;26213;52.446;20.706;2022-10-31T08:31:26;47.20;;;30.63;;
40511;SDS011;26213;52.446;20.706;2022-10-31T08:33:53;42.35;;;30.98;;
40511;SDS011;26213;52.446;20.706;2022-10-31T08:36:19;40.25;;;28.67;;
40511;SDS011;26213;52.446;20.706;2022-10-31T08:38:46;43.45;;;30.90;;
40511;SDS011;26213;52.446;20.706;2022-10-31T08:41:12;41.33;;;30.40;;
40511;SDS011;26213;52.446;20.706;2022-10-31T08:43:38;43.50;;;30.73;;
40511;SDS011;26213;52.446;20.706;2022-10-31T08:46:04;42.42;;;30.98;;
40511;SDS011;26213;52.446;20.706;2022-10-31T08:48:31;39.30;;;29.52;;
40511;SDS011;26213;52.446;20.706;2022-10-31T08:50:57;41.17;;;29.67;;
40511;SDS011;26213;52.446;20.706;2022-10-31T08:53:23;37.47;;;28.00;;
40511;SDS011;26213;52.446;20.706;2022-10-31T08:55:49;39.00;;;29.25;;
40511;SDS011;26213;52.446;20.706;2022-10-31T08:58:16;37.35;;;29.05;;
40511;SDS011;26213;52.446;20.706;2022-10-31T09:00:43;41.28;;;28.23;;
40511;SDS011;26213;52.446;20.706;2022-10-31T09:03:10;39.05;;;27.40;;
40511;SDS011;26213;52.446;20.706;2022-10-31T09:05:37;40.55;;;29.70;;
40511;SDS011;26213;52.446;20.706;2022-10-31T09:08:03;40.50;;;29.65;;
40511;SDS011;26213;52.446;20.706;2022-10-31T09:10:30;41.75;;;29.80;;
40511;SDS011;26213;52.446;20.706;2022-10-31T09:13:07;35.73;;;26.33;;
40511;SDS011;26213;52.446;20.706;2022-10-31T09:15:35;41.72;;;26.45;;
40511;SDS011;26213;52.446;20.706;2022-10-31T09:18:03;34.08;;;28.27;;
40511;SDS011;26213;52.446;20.706;2022-10-31T09:20:30;33.35;;;26.17;;
40511;SDS011;26213;52.446;20.706;2022-10-31T09:23:00;44.72;;;26.60;;
40511;SDS011;26213;52.446;20.706;2022-10-31T09:25:26;32.30;;;25.15;;
40511;SDS011;26213;52.446;20.706;2022-10-31T09:27:56;37.45;;;25.17;;
40511;SDS011;26213;52.446;20.706;2022-10-31T09:30:22;37.95;;;26.58;;
40511;SDS011;26213;52.446;20.706;2022-10-31T09:32:48;36.97;;;26.48;;
40511;SDS011;26213;52.446;20.706;2022-10-31T09:35:13;38.38;;;25.25;;
40511;SDS011;26213;52.446;20.706;2022-10-31T09:37:38;31.00;;;23.90;;
40511;SDS011;26213;52.446;20.706;2022-10-31T09:40:04;30.77;;;22.50;;
40511;SDS011;26213;52.446;20.706;2022-10-31T09:42:34;32.35;;;22.25;;
40511;SDS011;26213;52.446;20.706;2022-10-31T09:45:24;28.25;;;20.63;;
40511;SDS011;26213;52.446;20.706;2022-10-31T09:56:09;25.45;;;18.40;;
40511;SDS011;26213;52.446;20.706;2022-10-31T09:58:41;24.27;;;19.15;;
40511;SDS011;26213;52.446;20.706;2022-10-31T10:01:09;27.95;;;19.02;;
40511;SDS011;26213;52.446;20.706;2022-10-31T10:03:54;24.08;;;18.83;;
40511;SDS011;26213;52.446;20.706;2022-10-31T10:06:23;25.05;;;17.17;;
40511;SDS011;26213;52.446;20.706;2022-10-31T10:08:50;24.05;;;17.50;;
40511;SDS011;26213;52.446;20.706;2022-10-31T10:14:28;23.42;;;17.55;;
40511;SDS011;26213;52.446;20.706;2022-10-31T10:30:16;23.38;;;15.90;;
40511;SDS011;26213;52.446;20.706;2022-10-31T10:32:45;23.33;;;15.18;;
40511;SDS011;26213;52.446;20.706;2022-10-31T10:35:22;24.33;;;15.25;;
40511;SDS011;26213;52.446;20.706;2022-10-31T10:37:52;20.73;;;14.07;;
40511;SDS011;26213;52.446;20.706;2022-10-31T10:40:41;18.33;;;12.75;;
40511;SDS011;26213;52.446;20.706;2022-10-31T10:45:54;26.92;;;14.75;;
40511;SDS011;26213;52.446;20.706;2022-10-31T10:54:55;23.10;;;15.90;;
40511;SDS011;26213;52.446;20.706;2022-10-31T10:59:56;23.88;;;14.02;;
40511;SDS011;26213;52.446;20.706;2022-10-31T11:02:25;21.55;;;14.70;;
40511;SDS011;26213;52.446;20.706;2022-10-31T11:04:53;24.00;;;15.85;;
40511;SDS011;26213;52.446;20.706;2022-10-31T11:07:20;22.33;;;14.40;;
40511;SDS011;26213;52.446;20.706;2022-10-31T11:09:46;24.75;;;14.95;;
40511;SDS011;26213;52.446;20.706;2022-10-31T11:14:57;22.05;;;15.07;;
40511;SDS011;26213;52.446;20.706;2022-10-31T11:22:42;27.58;;;15.15;;
40511;SDS011;26213;52.446;20.706;2022-10-31T11:25:24;20.42;;;14.55;;
40511;SDS011;26213;52.446;20.706;2022-10-31T11:28:09;22.65;;;14.18;;
40511;SDS011;26213;52.446;20.706;2022-10-31T11:35:58;27.48;;;14.10;;
40511;SDS011;26213;52.446;20.706;2022-10-31T11:38:24;24.58;;;14.52;;
40511;SDS011;26213;52.446;20.706;2022-10-31T11:41:14;22.40;;;12.55;;
40511;SDS011;26213;52.446;20.706;2022-10-31T11:46:26;19.52;;;12.82;;
40511;SDS011;26213;52.446;20.706;2022-10-31T11:49:15;19.13;;;13.05;;
40511;SDS011;26213;52.446;20.706;2022-10-31T11:51:49;22.42;;;15.25;;
40511;SDS011;26213;52.446;20.706;2022-10-31T11:54:19;20.23;;;14.32;;
40511;SDS011;26213;52.446;20.706;2022-10-31T11:56:55;23.50;;;13.73;;
40511;SDS011;26213;52.446;20.706;2022-10-31T12:01:55;21.25;;;13.23;;
40511;SDS011;26213;52.446;20.706;2022-10-31T12:04:27;20.70;;;13.48;;
40511;SDS011;26213;52.446;20.706;2022-10-31T12:06:54;21.73;;;12.80;;
40511;SDS011;26213;52.446;20.706;2022-10-31T12:09:21;21.38;;;14.13;;
40511;SDS011;26213;52.446;20.706;2022-10-31T12:14:20;20.00;;;12.95;;
40511;SDS011;26213;52.446;20.706;2022-10-31T12:20:13;20.13;;;12.98;;
40511;SDS011;26213;52.446;20.706;2022-10-31T12:31:33;18.92;;;14.00;;
40511;SDS011;26213;52.446;20.706;2022-10-31T12:37:12;25.50;;;14.38;;
40511;SDS011;26213;52.446;20.706;2022-10-31T12:39:52;22.75;;;13.50;;
40511;SDS011;26213;52.446;20.706;2022-10-31T12:51:13;28.75;;;15.88;;
40511;SDS011;26213;52.446;20.706;2022-10-31T12:56:46;22.52;;;16.20;;
40511;SDS011;26213;52.446;20.706;2022-10-31T13:01:56;25.52;;;15.95;;
40511;SDS011;26213;52.446;20.706;2022-10-31T13:04:51;26.33;;;18.02;;
40511;SDS011;26213;52.446;20.706;2022-10-31T13:07:35;25.98;;;17.10;;
40511;SDS011;26213;52.446;20.706;2022-10-31T13:10:26;24.83;;;16.25;;
40511;SDS011;26213;52.446;20.706;2022-10-31T13:13:00;26.55;;;19.52;;
40511;SDS011;26213;52.446;20.706;2022-10-31T13:15:32;23.13;;;17.67;;
40511;SDS011;26213;52.446;20.706;2022-10-31T13:18:01;23.80;;;17.80;;
40511;SDS011;26213;52.446;20.706;2022-10-31T13:20:34;28.15;;;17.55;;
40511;SDS011;26213;52.446;20.706;2022-10-31T13:25:44;24.83;;;17.85;;
40511;SDS011;26213;52.446;20.706;2022-10-31T13:30:59;31.25;;;19.00;;
40511;SDS011;26213;52.446;20.706;2022-10-31T13:38:48;30.67;;;20.38;;
40511;SDS011;26213;52.446;20.706;2022-10-31T13:41:27;32.65;;;20.25;;
40511;SDS011;26213;52.446;20.706;2022-10-31T15:41:57;43.97;;;31.35;;
40511;SDS011;26213;52.446;20.706;2022-10-31T15:44:30;53.47;;;37.17;;
40511;SDS011;26213;52.446;20.706;2022-10-31T15:47:05;57.33;;;40.47;;
40511;SDS011;26213;52.446;20.706;2022-10-31T15:49:41;62.50;;;41.35;;
40511;SDS011;26213;52.446;20.706;2022-10-31T15:52:17;65.68;;;39.45;;
40511;SDS011;26213;52.446;20.706;2022-10-31T15:55:00;59.70;;;40.95;;
40511;SDS011;26213;52.446;20.706;2022-10-31T15:57:31;60.38;;;40.25;;
40511;SDS011;26213;52.446;20.706;2022-10-31T15:59:58;56.65;;;40.67;;
40511;SDS011;26213;52.446;20.706;2022-10-31T16:02:24;64.03;;;41.95;;
40511;SDS011;26213;52.446;20.706;2022-10-31T16:07:22;84.13;;;57.22;;
40511;SDS011;26213;52.446;20.706;2022-10-31T16:09:49;134.05;;;80.00;;
40511;SDS011;26213;52.446;20.706;2022-10-31T16:12:35;94.25;;;61.35;;
40511;SDS011;26213;52.446;20.706;2022-10-31T16:15:04;71.80;;;46.60;;
40511;SDS011;26213;52.446;20.706;2022-10-31T16:17:31;71.90;;;44.72;;
40511;SDS011;26213;52.446;20.706;2022-10-31T16:20:00;71.60;;;44.42;;
40511;SDS011;26213;52.446;20.706;2022-10-31T16:22:29;73.00;;;47.67;;
40511;SDS011;26213;52.446;20.706;2022-10-31T16:25:08;77.20;;;45.65;;
40511;SDS011;26213;52.446;20.706;2022-10-31T16:27:36;74.18;;;44.33;;
40511;SDS011;26213;52.446;20.706;2022-10-31T16:30:24;80.35;;;47.70;;
40511;SDS011;26213;52.446;20.706;2022-10-31T16:32:56;77.15;;;47.95;;
40511;SDS011;26213;52.446;20.706;2022-10-31T16:35:38;74.68;;;46.83;;
40511;SDS011;26213;52.446;20.706;2022-10-31T16:38:04;73.68;;;48.92;;
40511;SDS011;26213;52.446;20.706;2022-10-31T16:40:30;107.38;;;66.45;;
40511;SDS011;26213;52.446;20.706;2022-10-31T16:42:57;81.10;;;45.75;;
40511;SDS011;26213;52.446;20.706;2022-10-31T16:45:25;92.35;;;49.53;;
40511;SDS011;26213;52.446;20.706;2022-10-31T16:47:52;82.85;;;45.03;;
40511;SDS011;26213;52.446;20.706;2022-10-31T16:50:24;90.85;;;46.15;;
40511;SDS011;26213;52.446;20.706;2022-10-31T16:52:51;96.97;;;46.58;;
40511;SDS011;26213;52.446;20.706;2022-10-31T16:55:17;105.40;;;49.80;;
40511;SDS011;26213;52.446;20.706;2022-10-31T17:00:15;112.13;;;52.25;;
40511;SDS011;26213;52.446;20.706;2022-10-31T17:05:14;114.38;;;52.42;;
40511;SDS011;26213;52.446;20.706;2022-10-31T17:07:41;128.23;;;54.58;;
40511;SDS011;26213;52.446;20.706;2022-10-31T17:10:07;107.97;;;49.30;;
40511;SDS011;26213;52.446;20.706;2022-10-31T17:12:33;115.88;;;52.30;;
40511;SDS011;26213;52.446;20.706;2022-10-31T17:14:59;125.53;;;52.67;;
40511;SDS011;26213;52.446;20.706;2022-10-31T17:17:24;124.03;;;53.25;;
40511;SDS011;26213;52.446;20.706;2022-10-31T17:19:50;140.35;;;55.42;;
40511;SDS011;26213;52.446;20.706;2022-10-31T17:22:15;154.07;;;57.33;;
40511;SDS011;26213;52.446;20.706;2022-10-31T17:24:41;144.60;;;56.00;;
40511;SDS011;26213;52.446;20.706;2022-10-31T17:27:06;149.63;;;55.60;;
40511;SDS011;26213;52.446;20.706;2022-10-31T17:29:32;128.43;;;56.90;;
40511;SDS011;26213;52.446;20.706;2022-10-31T17:31:58;135.90;;;53.22;;
40511;SDS011;26213;52.446;20.706;2022-10-31T17:34:24;145.32;;;63.03;;
40511;SDS011;26213;52.446;20.706;2022-10-31T17:36:50;148.45;;;60.70;;
40511;SDS011;26213;52.446;20.706;2022-10-31T17:39:17;138.75;;;58.72;;
40511;SDS011;26213;52.446;20.706;2022-10-31T17:41:43;146.48;;;59.53;;
40511;SDS011;26213;52.446;20.706;2022-10-31T17:44:10;128.25;;;56.20;;
40511;SDS011;26213;52.446;20.706;2022-10-31T17:46:35;133.52;;;54.63;;
40511;SDS011;26213;52.446;20.706;2022-10-31T17:49:01;130.40;;;57.20;;
40511;SDS011;26213;52.446;20.706;2022-10-31T17:51:29;149.80;;;62.42;;
40511;SDS011;26213;52.446;20.706;2022-10-31T17:53:54;149.10;;;68.85;;
40511;SDS011;26213;52.446;20.706;2022-10-31T17:56:20;146.07;;;63.97;;
40511;SDS011;26213;52.446;20.706;2022-10-31T17:58:45;144.10;;;62.70;;
40511;SDS011;26213;52.446;20.706;2022-10-31T18:01:12;142.75;;;60.05;;
40511;SDS011;26213;52.446;20.706;2022-10-31T18:03:39;154.23;;;59.25;;
40511;SDS011;26213;52.446;20.706;2022-10-31T18:06:05;149.23;;;64.57;;
40511;SDS011;26213;52.446;20.706;2022-10-31T18:08:31;141.50;;;61.70;;
40511;SDS011;26213;52.446;20.706;2022-10-31T18:11:01;157.40;;;68.80;;
40511;SDS011;26213;52.446;20.706;2022-10-31T18:13:35;157.90;;;65.88;;
40511;SDS011;26213;52.446;20.706;2022-10-31T18:16:06;216.45;;;80.05;;
40511;SDS011;26213;52.446;20.706;2022-10-31T18:18:35;204.73;;;89.65;;
40511;SDS011;26213;52.446;20.706;2022-10-31T18:21:00;183.85;;;70.20;;